Time;durP1;ratioP1;P1;durP2;ratioP2;P2;SDS_P1;SDS_P2;PMS_P1;PMS_P2;Temp;Humidity;BMP_temperature;BMP_pressure;BME280_temperature;BME280_humidity;BME280_pressure;Samples;Min_cycle;Max_cycle;Signal;HPM_P1;HPM_P2
2022/09/26 00:00:42;;;;;;;7.68;3.03;;;11.40;99.90;;;;;;4979588;28;20077;-74
2022/09/26 00:03:09;;;;;;;5.75;2.90;;;11.40;99.90;;;;;;4979724;28;20050;-75
2022/09/26 00:05:36;;;;;;;8.52;2.80;;;11.40;99.90;;;;;;4965780;28;20704;-75
2022/09/26 00:08:03;;;;;;;5.10;2.95;;;11.40;99.90;;;;;;4980608;28;20123;-75
2022/09/26 00:10:28;;;;;;;7.15;2.83;;;11.40;99.90;;;;;;4978900;28;20073;-75
2022/09/26 00:12:55;;;;;;;6.85;2.60;;;11.40;99.90;;;;;;4980410;28;20414;-74
2022/09/26 00:15:20;;;;;;;5.03;2.70;;;11.40;99.90;;;;;;4981922;28;20133;-74
2022/09/26 00:17:46;;;;;;;5.82;2.55;;;11.40;99.90;;;;;;4979305;28;20045;-74
2022/09/26 00:20:12;;;;;;;7.10;2.70;;;11.40;99.90;;;;;;4964195;28;20042;-74
2022/09/26 00:22:38;;;;;;;5.10;3.03;;;11.40;99.90;;;;;;4978238;28;20038;-73
2022/09/26 00:25:04;;;;;;;4.10;2.58;;;11.40;99.90;;;;;;4979864;28;20133;-72
2022/09/26 00:27:29;;;;;;;5.45;2.50;;;11.40;99.90;;;;;;4980902;28;20046;-73
2022/09/26 00:29:55;;;;;;;6.13;2.42;;;11.40;99.90;;;;;;4979289;28;20050;-73
2022/09/26 00:32:20;;;;;;;7.35;2.20;;;11.40;99.90;;;;;;4967579;28;20039;-75
2022/09/26 00:34:46;;;;;;;4.63;1.90;;;11.40;99.90;;;;;;4977502;28;20038;-73
2022/09/26 00:37:12;;;;;;;7.47;2.20;;;11.40;99.90;;;;;;4980196;28;20058;-72
2022/09/26 00:39:37;;;;;;;6.38;2.47;;;11.40;99.90;;;;;;4966897;28;20086;-73
2022/09/26 00:42:03;;;;;;;4.85;2.30;;;11.40;99.90;;;;;;4985616;28;20042;-72
2022/09/26 00:44:53;;;;;;;5.95;2.35;;;11.40;99.90;;;;;;4984568;28;20065;-76
2022/09/26 00:47:25;;;;;;;7.15;2.25;;;11.40;99.90;;;;;;4982839;28;20046;-73
2022/09/26 00:49:56;;;;;;;5.63;1.87;;;11.40;99.90;;;;;;4986998;28;20526;-74
2022/09/26 00:52:35;;;;;;;7.83;2.27;;;11.40;99.90;;;;;;4986707;28;20278;-74
2022/09/26 00:55:03;;;;;;;6.88;2.05;;;11.40;99.90;;;;;;4981076;28;20310;-74
2022/09/26 00:57:36;;;;;;;6.40;1.80;;;11.40;99.90;;;;;;4980238;28;20050;-74
2022/09/26 01:00:09;;;;;;;9.63;2.30;;;11.40;99.90;;;;;;4981279;28;20070;-73
2022/09/26 01:02:35;;;;;;;;;;;11.40;99.90;;;;;;4980868;28;20137;-74
2022/09/26 01:05:03;;;;;;;6.75;2.00;;;11.40;99.90;;;;;;4979936;28;20053;-74
2022/09/26 01:07:29;;;;;;;9.05;2.33;;;11.40;99.90;;;;;;4980264;28;20426;-74
2022/09/26 01:09:56;;;;;;;7.97;2.50;;;11.40;99.90;;;;;;4980197;28;20092;-74
2022/09/26 01:12:22;;;;;;;3.22;1.85;;;11.30;99.90;;;;;;4980659;28;20073;-73
2022/09/26 01:14:52;;;;;;;7.25;2.10;;;11.30;99.90;;;;;;4980870;28;20516;-73
2022/09/26 01:17:18;;;;;;;6.70;2.50;;;11.40;99.90;;;;;;4983682;28;20046;-73
2022/09/26 01:20:19;;;;;;;5.13;2.17;;;11.40;99.90;;;;;;4982904;28;20047;-74
2022/09/26 01:23:19;;;;;;;6.43;2.25;;;11.40;99.90;;;;;;4980413;28;20100;-75
2022/09/26 01:25:59;;;;;;;7.72;2.38;;;11.40;99.90;;;;;;4968925;28;20053;-74
2022/09/26 01:28:47;;;;;;;7.43;2.67;;;11.40;99.90;;;;;;4984110;28;20047;-75
2022/09/26 01:31:32;;;;;;;9.07;2.60;;;11.40;99.90;;;;;;4982548;28;20046;-74
2022/09/26 01:34:03;;;;;;;6.65;2.70;;;11.30;99.90;;;;;;4979932;28;20689;-75
2022/09/26 01:36:48;;;;;;;10.40;3.17;;;11.30;99.90;;;;;;4981333;28;20054;-72
2022/09/26 01:39:38;;;;;;;8.63;3.13;;;11.30;99.90;;;;;;4979627;28;20074;-72
2022/09/26 01:42:50;;;;;;;8.85;3.10;;;11.40;99.90;;;;;;4983561;28;20050;-74
2022/09/26 01:45:23;;;;;;;10.57;3.58;;;11.30;99.90;;;;;;4972805;28;20137;-72
2022/09/26 01:47:59;;;;;;;5.43;3.05;;;11.40;99.90;;;;;;4983818;28;20046;-74
2022/09/26 01:50:41;;;;;;;7.97;3.40;;;11.40;99.90;;;;;;4982446;28;20487;-74
2022/09/26 01:53:30;;;;;;;9.13;3.47;;;11.40;99.90;;;;;;4982144;28;20065;-74
2022/09/26 01:56:02;;;;;;;8.52;3.45;;;11.40;99.90;;;;;;4981514;28;20068;-73
2022/09/26 01:58:34;;;;;;;5.57;3.25;;;11.40;99.90;;;;;;4980881;28;20038;-73
2022/09/26 02:01:06;;;;;;;7.43;3.33;;;11.40;99.90;;;;;;4976869;28;20123;-73
2022/09/26 02:03:36;;;;;;;7.32;3.03;;;11.40;99.90;;;;;;4963784;28;20043;-74
2022/09/26 02:06:06;;;;;;;6.57;3.15;;;11.40;99.90;;;;;;4968359;28;20053;-72
2022/09/26 02:08:44;;;;;;;7.07;3.25;;;11.50;99.90;;;;;;4963068;28;20133;-73
2022/09/26 02:11:16;;;;;;;6.10;3.47;;;11.40;99.90;;;;;;4977808;28;20304;-73
2022/09/26 02:14:10;;;;;;;6.40;3.45;;;11.40;99.90;;;;;;4984487;28;20046;-73
2022/09/26 02:16:40;;;;;;;8.93;3.92;;;11.40;99.90;;;;;;4984301;28;20045;-72
2022/09/26 02:19:32;;;;;;;9.70;3.53;;;11.40;99.90;;;;;;4983695;28;20081;-73
2022/09/26 02:22:00;;;;;;;7.88;3.55;;;11.40;99.90;;;;;;4979290;28;20124;-73
2022/09/26 02:24:26;;;;;;;8.73;4.25;;;11.40;99.90;;;;;;4980786;28;20557;-73
2022/09/26 02:26:52;;;;;;;5.82;3.35;;;11.40;99.90;;;;;;4979455;28;20050;-72
2022/09/26 02:29:19;;;;;;;7.45;3.60;;;11.40;99.90;;;;;;4981784;28;20109;-72
2022/09/26 02:32:11;;;;;;;7.65;3.80;;;11.40;99.90;;;;;;4980264;28;20039;-73
2022/09/26 02:34:39;;;;;;;8.15;3.85;;;11.40;99.90;;;;;;4981855;28;20047;-73
2022/09/26 02:37:05;;;;;;;5.97;3.67;;;11.40;99.90;;;;;;4983503;28;20034;-72
2022/09/26 02:39:31;;;;;;;8.60;3.80;;;11.50;99.90;;;;;;4984554;28;20403;-72
2022/09/26 02:42:13;;;;;;;5.93;3.78;;;11.50;99.90;;;;;;4980041;28;20042;-74
2022/09/26 02:45:13;;;;;;;7.82;4.40;;;11.50;99.90;;;;;;4979139;28;20049;-72
2022/09/26 02:47:59;;;;;;;11.90;4.55;;;11.40;99.90;;;;;;4980513;28;20049;-73
2022/09/26 02:50:27;;;;;;;7.38;3.95;;;11.50;99.90;;;;;;4976772;28;20643;-74
2022/09/26 02:53:15;;;;;;;12.10;4.82;;;11.40;99.90;;;;;;4973040;28;20039;-73
2022/09/26 02:55:53;;;;;;;7.10;4.32;;;11.50;99.90;;;;;;4978923;28;20042;-73
2022/09/26 02:58:22;;;;;;;10.95;4.38;;;11.40;99.90;;;;;;4976309;28;20049;-72
2022/09/26 03:01:01;;;;;;;10.95;4.70;;;11.40;99.90;;;;;;4978326;28;20126;-73
2022/09/26 03:03:36;;;;;;;7.07;4.47;;;11.40;99.90;;;;;;4980419;28;20038;-73
2022/09/26 03:06:07;;;;;;;10.57;4.75;;;11.40;99.90;;;;;;4981840;28;20113;-74
2022/09/26 03:08:37;;;;;;;6.57;4.70;;;11.40;99.90;;;;;;4981666;28;20421;-74
2022/09/26 03:11:05;;;;;;;7.85;4.40;;;11.40;99.90;;;;;;4980755;28;20034;-73
2022/09/26 03:13:37;;;;;;;8.05;5.30;;;11.40;99.90;;;;;;4976564;28;20499;-72
2022/09/26 03:16:04;;;;;;;7.38;5.40;;;11.40;99.90;;;;;;4980010;28;20435;-76
2022/09/26 03:18:43;;;;;;;8.43;5.18;;;11.30;99.90;;;;;;4985683;28;20177;-72
2022/09/26 03:21:09;;;;;;;7.70;4.50;;;11.30;99.90;;;;;;4979723;28;20043;-73
2022/09/26 03:23:35;;;;;;;14.10;5.45;;;11.30;99.90;;;;;;4985989;28;20069;-73
2022/09/26 03:26:07;;;;;;;8.98;5.57;;;11.30;99.90;;;;;;4983094;28;20073;-74
2022/09/26 03:28:32;;;;;;;13.85;5.40;;;11.40;99.90;;;;;;4987813;28;20596;-73
2022/09/26 03:30:58;;;;;;;12.65;5.65;;;11.30;99.90;;;;;;4987155;28;20089;-74
2022/09/26 03:33:23;;;;;;;15.75;5.82;;;11.30;99.90;;;;;;4985840;28;20060;-73
2022/09/26 03:35:49;;;;;;;9.70;5.43;;;11.30;99.90;;;;;;4985410;28;20146;-74
2022/09/26 03:38:14;;;;;;;8.05;5.70;;;11.20;99.90;;;;;;4980328;28;20069;-73
2022/09/26 03:40:41;;;;;;;9.68;5.93;;;11.30;99.90;;;;;;4981488;28;20050;-73
2022/09/26 03:43:06;;;;;;;9.38;5.57;;;11.40;99.90;;;;;;4978113;28;20051;-74
2022/09/26 03:45:35;;;;;;;10.48;5.30;;;11.30;99.90;;;;;;4977897;28;20518;-73
2022/09/26 03:48:01;;;;;;;10.30;6.55;;;11.30;99.90;;;;;;4974626;28;20082;-75
2022/09/26 03:50:27;;;;;;;10.00;6.07;;;11.30;99.90;;;;;;4979893;28;20130;-75
2022/09/26 03:52:53;;;;;;;9.55;6.18;;;11.30;99.90;;;;;;4978853;28;20100;-75
2022/09/26 03:55:18;;;;;;;11.02;6.20;;;11.30;99.90;;;;;;4979508;28;20046;-75
2022/09/26 03:57:44;;;;;;;8.63;5.88;;;11.30;99.90;;;;;;4964792;28;20084;-75
2022/09/26 04:00:10;;;;;;;10.23;6.03;;;11.20;99.90;;;;;;4980101;28;20042;-75
2022/09/26 04:02:36;;;;;;;8.20;6.57;;;11.20;99.90;;;;;;4979356;28;20050;-75
2022/09/26 04:05:02;;;;;;;10.82;6.80;;;11.30;99.90;;;;;;4978579;28;20046;-75
2022/09/26 04:07:28;;;;;;;11.80;6.80;;;11.20;99.90;;;;;;4979270;28;20057;-75
2022/09/26 04:09:53;;;;;;;10.65;6.68;;;11.30;99.90;;;;;;4981410;28;20499;-75
2022/09/26 04:12:19;;;;;;;12.18;7.25;;;11.30;99.90;;;;;;4977182;28;20295;-76
2022/09/26 04:14:45;;;;;;;13.38;7.22;;;11.20;99.90;;;;;;4964988;28;20050;-76
2022/09/26 04:17:11;;;;;;;13.48;7.45;;;11.20;99.90;;;;;;4978269;28;20128;-76
2022/09/26 04:19:37;;;;;;;12.90;7.80;;;11.20;99.90;;;;;;4976922;28;20503;-76
2022/09/26 04:22:03;;;;;;;10.30;7.53;;;11.20;99.90;;;;;;4981540;28;20081;-76
2022/09/26 04:24:29;;;;;;;11.05;7.88;;;11.20;99.90;;;;;;4983739;28;20077;-76
2022/09/26 04:26:55;;;;;;;10.00;7.85;;;11.30;99.90;;;;;;4982811;28;20092;-76
2022/09/26 04:29:20;;;;;;;10.23;8.05;;;11.20;99.90;;;;;;4989506;28;20050;-74
2022/09/26 04:31:46;;;;;;;15.95;8.50;;;11.20;99.90;;;;;;4987664;28;20069;-75
2022/09/26 04:34:13;;;;;;;11.13;8.18;;;11.10;99.90;;;;;;4983519;28;20042;-74
2022/09/26 04:36:40;;;;;;;11.88;8.85;;;11.10;99.90;;;;;;4986171;28;20045;-74
2022/09/26 04:39:06;;;;;;;13.93;9.23;;;11.10;99.90;;;;;;4983157;28;20043;-75
2022/09/26 04:41:32;;;;;;;13.88;9.35;;;11.10;99.90;;;;;;4987699;28;20124;-74
2022/09/26 04:43:58;;;;;;;11.77;9.05;;;11.10;99.90;;;;;;4983403;28;20046;-75
2022/09/26 04:46:27;;;;;;;15.52;10.20;;;11.10;99.90;;;;;;4981328;28;20060;-76
2022/09/26 04:48:54;;;;;;;10.70;9.27;;;11.10;99.90;;;;;;4982122;28;20054;-75
2022/09/26 04:51:21;;;;;;;18.85;10.38;;;11.10;99.90;;;;;;4984510;28;20109;-76
2022/09/26 04:53:47;;;;;;;12.35;9.75;;;11.10;99.90;;;;;;4984847;28;20061;-76
2022/09/26 04:56:15;;;;;;;15.45;9.88;;;11.00;99.90;;;;;;4980083;28;20125;-73
2022/09/26 04:58:42;;;;;;;14.90;10.52;;;11.10;99.90;;;;;;4980136;28;20049;-74
2022/09/26 05:01:16;;;;;;;16.42;10.45;;;11.10;99.90;;;;;;4982897;28;20126;-74
2022/09/26 05:03:43;;;;;;;13.45;10.50;;;11.10;99.90;;;;;;4984646;28;20050;-75
2022/09/26 05:06:10;;;;;;;13.55;10.55;;;11.10;99.90;;;;;;4985639;28;20049;-73
2022/09/26 05:08:37;;;;;;;15.63;11.18;;;11.10;99.90;;;;;;4982956;28;20162;-74
2022/09/26 05:11:03;;;;;;;13.30;10.15;;;11.00;99.90;;;;;;4982949;28;20053;-74
2022/09/26 05:13:29;;;;;;;17.35;10.82;;;11.00;99.90;;;;;;4985318;28;20055;-74
2022/09/26 05:15:58;;;;;;;13.55;10.18;;;11.10;99.90;;;;;;4984313;28;20045;-73
2022/09/26 05:18:25;;;;;;;13.00;9.63;;;11.00;99.90;;;;;;4980748;28;20065;-74
2022/09/26 05:20:52;;;;;;;13.95;9.52;;;11.10;99.90;;;;;;4984315;28;20475;-74
2022/09/26 05:26:38;;;;;;;16.88;9.48;;;11.10;99.90;;;;;;4979671;28;20081;-74
2022/09/26 05:29:04;;;;;;;17.08;9.60;;;11.10;99.90;;;;;;4973744;28;20129;-75
2022/09/26 05:31:35;;;;;;;18.90;9.55;;;11.00;99.90;;;;;;4985057;28;20153;-74
2022/09/26 05:34:06;;;;;;;11.25;8.82;;;11.00;99.90;;;;;;4983103;28;20050;-73
2022/09/26 05:36:32;;;;;;;15.68;10.35;;;11.00;99.90;;;;;;4983270;28;20133;-76
2022/09/26 05:38:58;;;;;;;14.25;8.82;;;11.00;99.90;;;;;;4982648;28;20050;-75
2022/09/26 05:41:28;;;;;;;14.10;9.82;;;11.00;99.90;;;;;;4970781;28;20081;-74
2022/09/26 05:43:54;;;;;;;13.15;9.45;;;11.00;99.90;;;;;;4971957;28;20042;-75
2022/09/26 05:46:20;;;;;;;12.93;8.80;;;11.00;99.90;;;;;;4980642;28;20038;-76
2022/09/26 05:48:46;;;;;;;12.70;9.15;;;11.00;99.90;;;;;;4995454;28;20049;-74
2022/09/26 05:51:15;;;;;;;14.52;8.65;;;10.90;99.90;;;;;;4980698;28;20569;-73
2022/09/26 05:53:43;;;;;;;11.02;7.90;;;11.00;99.90;;;;;;4976477;28;20630;-73
2022/09/26 05:56:10;;;;;;;12.80;8.10;;;11.00;99.90;;;;;;4979089;28;20086;-74
2022/09/26 05:58:38;;;;;;;10.98;7.60;;;11.00;99.90;;;;;;4979388;28;20058;-75
2022/09/26 06:01:14;;;;;;;15.02;7.70;;;11.00;99.90;;;;;;4975892;28;21767;-76
2022/09/26 06:03:44;;;;;;;12.52;7.78;;;10.90;99.90;;;;;;4996881;28;20042;-75
2022/09/26 06:06:18;;;;;;;9.68;7.35;;;10.90;99.90;;;;;;4980697;28;20069;-74
2022/09/26 06:08:44;;;;;;;14.63;7.68;;;11.00;99.90;;;;;;4978816;28;20035;-75
2022/09/26 06:11:12;;;;;;;12.95;7.70;;;10.90;99.90;;;;;;4982011;28;20042;-75
2022/09/26 06:13:39;;;;;;;9.48;7.45;;;10.90;99.90;;;;;;4981332;28;20042;-73
2022/09/26 06:16:09;;;;;;;12.40;7.40;;;10.90;99.90;;;;;;4981966;28;20052;-73
2022/09/26 06:18:35;;;;;;;12.30;7.05;;;10.90;99.90;;;;;;4980170;28;20092;-73
2022/09/26 06:21:05;;;;;;;10.38;6.82;;;10.90;99.90;;;;;;4984485;28;20556;-74
2022/09/26 06:23:32;;;;;;;11.77;7.38;;;10.90;99.90;;;;;;4974883;28;20046;-74
2022/09/26 06:25:58;;;;;;;9.95;7.25;;;10.90;99.90;;;;;;4981128;28;20053;-75
2022/09/26 06:28:25;;;;;;;12.68;6.78;;;10.90;99.90;;;;;;4979658;28;20038;-74
2022/09/26 06:30:52;;;;;;;12.40;7.30;;;10.90;99.90;;;;;;4976167;28;20046;-74
2022/09/26 06:33:17;;;;;;;10.00;6.50;;;10.90;99.90;;;;;;4977884;28;20105;-74
2022/09/26 06:35:43;;;;;;;12.80;6.68;;;10.90;99.90;;;;;;4975323;28;20038;-75
2022/09/26 06:38:09;;;;;;;11.48;7.10;;;10.90;99.90;;;;;;4977895;28;20482;-74
2022/09/26 06:40:35;;;;;;;13.65;6.70;;;10.90;99.90;;;;;;4975761;28;20093;-73
2022/09/26 06:43:00;;;;;;;9.82;6.20;;;10.90;99.90;;;;;;4975646;28;20141;-75
2022/09/26 06:45:26;;;;;;;7.57;5.53;;;10.90;99.90;;;;;;4978984;28;20070;-73
2022/09/26 06:47:53;;;;;;;8.65;5.82;;;10.90;99.90;;;;;;4983159;28;20077;-73
2022/09/26 06:50:20;;;;;;;10.10;5.63;;;10.90;99.90;;;;;;4979053;28;20041;-73
2022/09/26 06:52:46;;;;;;;7.22;5.00;;;10.90;99.90;;;;;;4975390;28;20129;-73
2022/09/26 06:55:12;;;;;;;10.10;5.68;;;11.00;99.90;;;;;;4997033;28;20043;-74
2022/09/26 07:00:14;;;;;;;10.35;5.40;;;11.00;99.90;;;;;;5566009;23;20497;-74
2022/09/26 07:02:50;;;;;;;10.60;5.00;;;11.00;99.90;;;;;;4992059;28;20052;-73
2022/09/26 07:05:16;;;;;;;8.10;5.10;;;11.00;99.90;;;;;;4985371;28;20117;-73
2022/09/26 07:07:44;;;;;;;6.55;4.55;;;11.00;99.90;;;;;;4990784;28;20469;-73
2022/09/26 07:10:10;;;;;;;10.30;4.53;;;11.00;99.90;;;;;;4990992;28;20166;-73
2022/09/26 07:12:39;;;;;;;8.63;4.40;;;11.00;99.90;;;;;;4987345;28;20500;-74
2022/09/26 07:15:06;;;;;;;8.80;4.38;;;11.00;99.90;;;;;;4990736;28;20034;-74
2022/09/26 07:17:32;;;;;;;7.03;4.40;;;10.90;99.90;;;;;;4990294;28;20050;-74
2022/09/26 07:19:57;;;;;;;7.90;4.78;;;11.00;99.90;;;;;;4986329;28;20050;-74
2022/09/26 07:22:23;;;;;;;8.32;4.30;;;11.00;99.90;;;;;;4983661;28;20160;-74
2022/09/26 07:24:49;;;;;;;8.75;4.97;;;11.00;99.90;;;;;;4985110;28;20046;-74
2022/09/26 07:27:16;;;;;;;9.00;4.63;;;10.90;99.90;;;;;;4988297;28;20049;-74
2022/09/26 07:29:44;;;;;;;9.40;4.78;;;10.90;99.90;;;;;;4984225;28;20048;-74
2022/09/26 07:32:10;;;;;;;8.02;4.72;;;10.90;99.90;;;;;;4987000;28;20092;-74
2022/09/26 07:34:36;;;;;;;6.68;4.30;;;10.90;99.90;;;;;;4984750;28;20042;-73
2022/09/26 07:37:01;;;;;;;7.53;4.18;;;10.90;99.90;;;;;;4984486;28;20054;-73
2022/09/26 07:39:27;;;;;;;10.55;4.68;;;10.90;99.90;;;;;;4970794;28;20048;-74
2022/09/26 07:41:52;;;;;;;9.23;4.72;;;11.00;99.90;;;;;;4986998;28;20119;-75
2022/09/26 07:44:18;;;;;;;8.57;4.75;;;11.00;99.90;;;;;;4969412;28;20064;-73
2022/09/26 08:10:19;;;;;;;8.68;5.53;;;11.10;99.90;;;;;;5461591;23;20054;-80
2022/09/26 08:13:05;;;;;;;7.72;5.07;;;11.10;99.90;;;;;;4989643;28;20100;-79
2022/09/26 08:15:52;;;;;;;7.85;4.80;;;11.20;99.90;;;;;;4972546;28;20072;-79
2022/09/26 08:18:38;;;;;;;8.15;4.80;;;11.20;99.90;;;;;;4989957;28;20046;-75
